Archiv

Tageswerte

Alle gespeicherten Messwerte deiner Wetterstation.

Ausgewählter Tag02.12.2023
← Vortag Nächster Tag → Heute
Messpunkte287
Max Temperatur-3,8 °C
Min Temperatur-5,8 °C
Ø Temperatur-4,7 °C
Regen0,0 mm
Stärkste Böe16,4 km/h

Messwerte vom 02.12.2023

287 gespeicherte Messwerte

Diagramm anzeigen
ZeitTemperaturFeuchteDruckWindBöeRichtungRegenUVHelligkeit
23:59-4,2 °C90 %1.006,8 hPa1,7 km/h3,2 km/h269°0,0 mm
23:54-4,2 °C90 %1.006,8 hPa1,1 km/h3,2 km/h230°0,0 mm
23:49-4,3 °C90 %1.006,8 hPa2,0 km/h3,2 km/h281°0,0 mm
23:44-4,3 °C90 %1.006,8 hPa2,0 km/h6,4 km/h287°0,0 mm
23:39-4,3 °C90 %1.006,8 hPa1,7 km/h5,3 km/h265°0,0 mm
23:34-4,3 °C90 %1.006,8 hPa2,8 km/h5,6 km/h258°0,0 mm
23:29-4,3 °C90 %1.006,8 hPa2,3 km/h5,6 km/h281°0,0 mm
23:24-4,3 °C90 %1.006,8 hPa2,2 km/h7,9 km/h265°0,0 mm
23:19-4,3 °C90 %1.006,8 hPa1,8 km/h3,5 km/h308°0,0 mm
23:14-4,4 °C90 %1.006,1 hPa2,6 km/h8,2 km/h263°0,0 mm
23:09-4,4 °C90 %1.006,1 hPa2,2 km/h4,2 km/h295°0,0 mm
23:04-4,4 °C90 %1.006,1 hPa1,2 km/h3,2 km/h248°0,0 mm
22:59-4,4 °C90 %1.006,1 hPa1,5 km/h3,5 km/h293°0,0 mm
22:54-4,4 °C90 %1.006,1 hPa2,3 km/h5,3 km/h290°0,0 mm
22:49-4,4 °C90 %1.006,1 hPa0,6 km/h2,4 km/h292°0,0 mm
22:44-4,4 °C90 %1.006,1 hPa0,7 km/h2,7 km/h298°0,0 mm
22:39-4,4 °C90 %1.006,1 hPa2,0 km/h4,2 km/h300°0,0 mm
22:34-4,5 °C90 %1.006,1 hPa1,6 km/h3,5 km/h290°0,0 mm
22:29-4,5 °C90 %1.006,1 hPa1,8 km/h3,9 km/h290°0,0 mm
22:24-4,5 °C90 %1.006,1 hPa0,9 km/h3,9 km/h303°0,0 mm
22:19-4,5 °C90 %1.006,1 hPa2,0 km/h6,4 km/h280°0,0 mm
22:14-4,5 °C90 %1.006,1 hPa2,0 km/h6,4 km/h295°0,0 mm
22:09-4,5 °C90 %1.006,1 hPa1,6 km/h3,5 km/h281°0,0 mm
22:04-4,5 °C90 %1.006,1 hPa2,8 km/h6,8 km/h281°0,0 mm
21:59-4,6 °C90 %1.006,1 hPa2,0 km/h6,1 km/h267°0,0 mm
21:54-4,6 °C90 %1.006,1 hPa1,6 km/h3,9 km/h284°0,0 mm
21:49-4,6 °C90 %1.006,1 hPa2,0 km/h5,0 km/h262°0,0 mm
21:44-4,6 °C90 %1.006,1 hPa1,9 km/h5,3 km/h280°0,0 mm
21:39-4,6 °C90 %1.006,1 hPa1,8 km/h5,6 km/h291°0,0 mm
21:34-4,6 °C90 %1.006,1 hPa0,6 km/h2,4 km/h295°0,0 mm
21:29-4,6 °C90 %1.005,1 hPa0,9 km/h2,7 km/h292°0,0 mm
21:24-4,7 °C90 %1.005,1 hPa1,1 km/h2,7 km/h303°0,0 mm
21:19-4,7 °C90 %1.005,1 hPa1,5 km/h3,9 km/h280°0,0 mm
21:14-4,7 °C90 %1.006,1 hPa2,8 km/h5,6 km/h293°0,0 mm
21:09-4,7 °C90 %1.006,1 hPa1,9 km/h4,7 km/h287°0,0 mm
21:04-4,7 °C90 %1.006,1 hPa1,3 km/h3,9 km/h305°0,0 mm
20:59-4,7 °C90 %1.005,1 hPa1,6 km/h3,5 km/h273°0,0 mm
20:54-4,7 °C90 %1.005,1 hPa2,5 km/h10,3 km/h269°0,0 mm
20:49-4,8 °C90 %1.005,1 hPa2,0 km/h4,2 km/h292°0,0 mm
20:44-4,8 °C90 %1.005,1 hPa3,0 km/h7,9 km/h293°0,0 mm
20:39-4,8 °C90 %1.005,1 hPa3,4 km/h9,7 km/h300°0,0 mm
20:34-4,8 °C90 %1.005,1 hPa2,5 km/h5,3 km/h311°0,0 mm
20:29-4,8 °C90 %1.005,1 hPa3,5 km/h9,7 km/h319°0,0 mm
20:24-4,8 °C90 %1.005,1 hPa2,7 km/h8,5 km/h304°0,0 mm
20:19-4,8 °C90 %1.005,1 hPa3,8 km/h7,9 km/h305°0,0 mm
20:14-4,8 °C90 %1.005,1 hPa3,9 km/h9,3 km/h324°0,0 mm
20:09-4,8 °C90 %1.005,1 hPa2,9 km/h6,1 km/h308°0,0 mm
20:04-4,8 °C90 %1.005,1 hPa5,2 km/h12,9 km/h323°0,0 mm
19:59-4,8 °C89 %1.005,1 hPa4,1 km/h9,3 km/h300°0,0 mm
19:54-4,8 °C89 %1.005,1 hPa3,0 km/h6,4 km/h308°0,0 mm
19:49-4,8 °C89 %1.005,1 hPa5,2 km/h9,7 km/h316°0,0 mm
19:44-4,8 °C90 %1.005,1 hPa3,2 km/h6,8 km/h317°0,0 mm
19:39-4,8 °C90 %1.005,1 hPa4,9 km/h10,8 km/h315°0,0 mm
19:34-4,8 °C90 %1.005,1 hPa4,4 km/h10,8 km/h301°0,0 mm
19:29-4,8 °C90 %1.004,1 hPa5,3 km/h10,3 km/h313°0,0 mm
19:24-4,8 °C91 %1.004,1 hPa2,8 km/h6,8 km/h299°0,0 mm
19:19-4,8 °C91 %1.004,1 hPa2,9 km/h6,8 km/h316°0,0 mm
19:14-4,7 °C91 %1.004,1 hPa4,0 km/h8,5 km/h302°0,0 mm
19:09-4,7 °C91 %1.004,1 hPa4,1 km/h8,9 km/h295°0,0 mm
19:04-4,7 °C91 %1.004,1 hPa4,4 km/h8,9 km/h319°0,0 mm
18:59-4,6 °C92 %1.004,1 hPa4,5 km/h8,9 km/h301°0,0 mm
18:54-4,6 °C92 %1.004,1 hPa3,1 km/h9,3 km/h299°0,0 mm
18:49-4,6 °C92 %1.004,1 hPa3,1 km/h8,5 km/h315°0,0 mm
18:44-4,5 °C92 %1.004,1 hPa4,0 km/h15,0 km/h334°0,0 mm
18:39-4,5 °C92 %1.004,1 hPa6,0 km/h10,3 km/h316°0,0 mm
18:34-4,5 °C92 %1.004,1 hPa6,5 km/h16,4 km/h314°0,0 mm
18:29-4,6 °C93 %1.004,1 hPa4,2 km/h8,9 km/h318°0,0 mm
18:24-4,6 °C93 %1.004,1 hPa4,5 km/h9,7 km/h301°0,0 mm
18:19-4,7 °C93 %1.004,1 hPa3,8 km/h8,9 km/h306°0,0 mm
18:14-4,7 °C93 %1.003,1 hPa4,6 km/h12,2 km/h293°0,0 mm
18:09-4,7 °C93 %1.003,1 hPa3,1 km/h12,2 km/h274°0,0 mm
18:04-4,8 °C93 %1.003,1 hPa3,7 km/h11,1 km/h291°0,0 mm
17:59-4,8 °C93 %1.003,1 hPa1,0 km/h5,3 km/h306°0,0 mm
17:54-4,8 °C93 %1.003,1 hPa2,5 km/h7,9 km/h305°0,0 mm
17:49-4,7 °C93 %1.003,1 hPa6,1 km/h15,8 km/h286°0,0 mm
17:44-4,7 °C92 %1.003,1 hPa4,2 km/h8,9 km/h308°0,0 mm
17:39-4,7 °C92 %1.003,1 hPa2,0 km/h6,8 km/h306°0,0 mm
17:34-4,7 °C92 %1.003,1 hPa3,3 km/h8,5 km/h300°0,0 mm
17:29-4,7 °C92 %1.003,1 hPa4,1 km/h9,3 km/h318°0,0 mm
17:24-4,7 °C92 %1.003,1 hPa3,7 km/h11,4 km/h321°0,0 mm
17:19-4,7 °C92 %1.003,1 hPa4,7 km/h8,9 km/h320°0,0 mm
17:14-4,7 °C92 %1.003,1 hPa4,8 km/h7,9 km/h316°0,0 mm
17:09-4,6 °C92 %1.003,1 hPa5,9 km/h12,9 km/h313°0,0 mm
17:04-4,6 °C92 %1.003,1 hPa5,0 km/h11,1 km/h313°0,0 mm
16:59-4,7 °C91 %1.003,1 hPa5,0 km/h12,6 km/h315°0,0 mm
16:54-4,7 °C91 %1.003,1 hPa4,4 km/h11,4 km/h325°0,0 mm
16:49-4,7 °C91 %1.003,1 hPa1,8 km/h4,7 km/h295°0,0 mm
16:44-4,7 °C91 %1.003,1 hPa1,8 km/h3,9 km/h309°0,0 mm
16:39-4,7 °C91 %1.003,1 hPa1,6 km/h6,4 km/h302°0,0 mm
16:34-4,7 °C91 %1.003,1 hPa2,7 km/h4,7 km/h315°0,0 mm
16:29-4,7 °C91 %1.002,0 hPa1,6 km/h3,5 km/h315°0,0 mm
16:24-4,7 °C90 %1.002,0 hPa3,2 km/h6,8 km/h325°0,0 mm
16:19-4,7 °C90 %1.002,0 hPa2,3 km/h5,6 km/h309°0,0 mm
16:14-4,7 °C91 %1.002,0 hPa1,8 km/h3,5 km/h315°0,0 mm
16:09-4,6 °C91 %1.002,0 hPa0,8 km/h2,7 km/h315°0,0 mm
16:04-4,6 °C90 %1.002,0 hPa2,8 km/h7,4 km/h304°0,0 mm
15:59-4,5 °C91 %1.002,0 hPa2,6 km/h4,2 km/h310°0,0 mm
15:54-4,5 °C91 %1.002,0 hPa2,3 km/h7,9 km/h306°0,0 mm
15:49-4,5 °C90 %1.002,0 hPa2,4 km/h7,4 km/h315°0,0 mm
15:44-4,5 °C90 %1.002,0 hPa1,8 km/h5,3 km/h315°0,0 mm
15:39-4,5 °C91 %1.002,0 hPa0,6 km/h3,2 km/h338°0,0 mm
15:34-4,5 °C91 %1.002,0 hPa0,9 km/h2,7 km/h338°0,0 mm
15:29-4,5 °C90 %1.002,0 hPa2,2 km/h3,9 km/h338°0,0 mm
15:24-4,4 °C90 %1.002,0 hPa1,3 km/h3,9 km/h338°0,0 mm
15:19-4,4 °C90 %1.002,0 hPa2,9 km/h7,4 km/h323°0,0 mm
15:14-4,4 °C91 %1.001,0 hPa1,8 km/h5,3 km/h315°0,0 mm
15:09-4,4 °C91 %1.001,0 hPa1,1 km/h3,9 km/h315°0,0 mm
15:04-4,4 °C91 %1.001,0 hPa1,6 km/h3,9 km/h315°0,0 mm
14:59-4,4 °C91 %1.001,0 hPa1,3 km/h5,3 km/h315°0,0 mm
14:54-4,3 °C91 %1.001,0 hPa2,5 km/h4,2 km/h318°0,0 mm
14:49-4,3 °C91 %1.001,0 hPa2,4 km/h5,6 km/h315°0,0 mm
14:44-4,3 °C92 %1.001,0 hPa1,9 km/h5,6 km/h315°0,0 mm
14:39-4,3 °C91 %1.001,0 hPa1,2 km/h5,0 km/h320°0,0 mm
14:34-4,3 °C91 %1.001,0 hPa2,6 km/h8,5 km/h335°0,0 mm
14:29-4,3 °C91 %1.000,0 hPa2,1 km/h5,3 km/h315°0,0 mm
14:24-4,3 °C91 %1.000,0 hPa2,6 km/h7,4 km/h317°0,0 mm
14:19-4,3 °C91 %1.000,0 hPa1,7 km/h5,3 km/h338°0,0 mm
14:14-4,3 °C91 %1.000,0 hPa2,6 km/h8,5 km/h338°0,0 mm
14:09-4,4 °C92 %1.000,0 hPa0,8 km/h3,5 km/h338°0,0 mm
14:04-4,4 °C92 %1.000,0 hPa2,4 km/h4,7 km/h338°0,0 mm
13:59-4,5 °C92 %1.000,0 hPa2,8 km/h7,4 km/h338°0,0 mm
13:54-4,5 °C92 %1.000,0 hPa3,1 km/h6,8 km/h323°0,0 mm
13:49-4,5 °C92 %1.000,0 hPa2,4 km/h5,3 km/h315°0,0 mm
13:44-4,6 °C92 %1.000,0 hPa1,4 km/h2,7 km/h315°0,0 mm
13:39-4,6 °C92 %1.000,0 hPa2,5 km/h4,7 km/h315°0,0 mm
13:34-4,6 °C92 %1.000,0 hPa2,6 km/h5,6 km/h315°0,0 mm
13:29-4,6 °C92 %1.001,0 hPa2,8 km/h5,6 km/h315°0,0 mm
13:24-4,6 °C92 %1.001,0 hPa4,3 km/h8,5 km/h325°0,0 mm
13:19-4,6 °C92 %1.001,0 hPa3,2 km/h6,8 km/h315°0,0 mm
13:14-4,5 °C92 %1.000,0 hPa2,8 km/h6,8 km/h315°0,0 mm
13:09-4,5 °C92 %1.000,0 hPa2,9 km/h8,5 km/h315°0,0 mm
13:04-4,6 °C93 %1.000,0 hPa0,8 km/h2,4 km/h315°0,0 mm
12:59-4,6 °C92 %1.000,0 hPa2,9 km/h7,4 km/h315°0,0 mm
12:54-4,6 °C92 %1.000,0 hPa2,2 km/h5,3 km/h315°0,0 mm
12:49-4,7 °C93 %1.000,0 hPa1,6 km/h5,3 km/h315°0,0 mm
12:44-4,7 °C92 %1.000,0 hPa2,6 km/h5,3 km/h315°0,0 mm
12:39-4,7 °C93 %1.000,0 hPa1,6 km/h3,9 km/h315°0,0 mm
12:34-4,7 °C93 %1.000,0 hPa1,9 km/h5,6 km/h315°0,0 mm
12:29-4,8 °C92 %1.000,0 hPa2,1 km/h6,1 km/h315°0,0 mm
12:24-4,8 °C92 %1.000,0 hPa2,0 km/h6,4 km/h315°0,0 mm
12:19-4,8 °C92 %1.000,0 hPa1,9 km/h4,7 km/h315°0,0 mm
12:14-4,8 °C93 %1.000,0 hPa1,3 km/h3,9 km/h315°0,0 mm
12:09-4,9 °C93 %1.000,0 hPa1,7 km/h3,5 km/h315°0,0 mm
12:04-4,9 °C92 %1.000,0 hPa2,9 km/h8,5 km/h315°0,0 mm
11:59-4,8 °C92 %1.000,0 hPa2,8 km/h5,3 km/h312°0,0 mm
11:54-4,7 °C92 %1.000,0 hPa2,7 km/h5,3 km/h315°0,0 mm
11:49-4,8 °C93 %1.000,0 hPa1,0 km/h3,5 km/h315°0,0 mm
11:44-4,9 °C93 %1.000,0 hPa0,5 km/h2,7 km/h315°0,0 mm
11:39-5,0 °C93 %1.000,0 hPa1,6 km/h3,2 km/h315°0,0 mm
11:34-5,0 °C93 %1.000,0 hPa1,1 km/h4,2 km/h315°0,0 mm
11:29-5,1 °C93 %1.000,0 hPa1,4 km/h3,9 km/h315°0,0 mm
11:24-5,1 °C93 %1.000,0 hPa1,1 km/h3,5 km/h315°0,0 mm
11:19-5,2 °C93 %1.000,0 hPa1,3 km/h3,5 km/h315°0,0 mm
11:14-5,2 °C93 %1.000,0 hPa1,2 km/h5,3 km/h315°0,0 mm
11:09-5,1 °C93 %1.000,0 hPa1,8 km/h6,8 km/h323°0,0 mm
11:04-5,0 °C93 %1.000,0 hPa2,0 km/h5,3 km/h313°0,0 mm
10:59-5,1 °C93 %1.000,0 hPa0,7 km/h3,2 km/h271°0,0 mm
10:54-5,2 °C93 %1.000,0 hPa1,0 km/h2,7 km/h296°0,0 mm
10:49-5,2 °C93 %1.000,0 hPa1,2 km/h3,5 km/h315°0,0 mm
10:44-5,2 °C93 %1.000,0 hPa2,1 km/h4,7 km/h315°0,0 mm
10:39-5,2 °C93 %1.000,0 hPa2,0 km/h3,9 km/h315°0,0 mm
10:34-5,1 °C93 %1.000,0 hPa1,8 km/h6,8 km/h315°0,0 mm
10:29-5,2 °C93 %1.000,0 hPa0,9 km/h4,7 km/h315°0,0 mm
10:24-5,3 °C93 %1.000,0 hPa1,1 km/h5,0 km/h315°0,0 mm
10:19-5,3 °C93 %1.000,0 hPa0,8 km/h3,2 km/h315°0,0 mm
10:14-5,3 °C93 %999,0 hPa2,1 km/h7,4 km/h315°0,0 mm
10:09-5,3 °C93 %999,0 hPa1,3 km/h4,7 km/h315°0,0 mm
10:04-5,3 °C93 %999,0 hPa2,3 km/h7,4 km/h315°0,0 mm
09:59-5,4 °C93 %999,0 hPa1,3 km/h3,5 km/h315°0,0 mm
09:54-5,3 °C93 %999,0 hPa2,1 km/h7,4 km/h320°0,0 mm
09:49-5,3 °C93 %999,0 hPa1,7 km/h5,6 km/h315°0,0 mm
09:44-5,4 °C93 %999,0 hPa0,8 km/h2,7 km/h315°0,0 mm
09:39-5,4 °C93 %999,0 hPa1,3 km/h3,2 km/h315°0,0 mm
09:34-5,4 °C93 %999,0 hPa1,4 km/h2,7 km/h315°0,0 mm
09:29-5,5 °C93 %999,0 hPa0,8 km/h2,7 km/h315°0,0 mm
09:24-5,5 °C93 %999,0 hPa1,8 km/h3,9 km/h315°0,0 mm
09:19-5,5 °C93 %999,0 hPa1,6 km/h3,9 km/h315°0,0 mm
09:14-5,5 °C93 %999,0 hPa0,8 km/h3,5 km/h315°0,0 mm
09:09-5,5 °C93 %999,0 hPa1,0 km/h3,5 km/h315°0,0 mm
09:04-5,5 °C93 %999,0 hPa1,2 km/h5,0 km/h315°0,0 mm
08:59-5,5 °C93 %999,0 hPa1,2 km/h5,3 km/h315°0,0 mm
08:54-5,6 °C93 %999,0 hPa1,2 km/h7,9 km/h315°0,0 mm
08:49-5,6 °C93 %999,0 hPa1,3 km/h3,9 km/h315°0,0 mm
08:44-5,7 °C93 %999,0 hPa1,2 km/h3,9 km/h315°0,0 mm
08:39-5,7 °C93 %999,0 hPa1,5 km/h7,9 km/h315°0,0 mm
08:34-5,7 °C93 %999,0 hPa2,5 km/h8,5 km/h321°0,0 mm
08:29-5,7 °C93 %999,0 hPa2,1 km/h6,4 km/h315°0,0 mm
08:24-5,8 °C93 %999,0 hPa0,9 km/h6,4 km/h315°0,0 mm
08:19-5,8 °C93 %999,0 hPa1,3 km/h3,9 km/h315°0,0 mm
08:14-5,8 °C93 %999,0 hPa1,7 km/h6,8 km/h315°0,0 mm
08:09-5,8 °C93 %999,0 hPa1,6 km/h5,3 km/h315°0,0 mm
08:04-5,8 °C93 %999,0 hPa1,9 km/h7,4 km/h315°0,0 mm
07:59-5,8 °C93 %998,0 hPa2,5 km/h6,8 km/h315°0,0 mm
07:54-5,8 °C93 %998,0 hPa2,1 km/h5,6 km/h315°0,0 mm
07:49-5,8 °C93 %998,0 hPa1,3 km/h3,5 km/h315°0,0 mm
07:44-5,8 °C93 %998,0 hPa1,1 km/h3,5 km/h315°0,0 mm
07:39-5,7 °C93 %998,0 hPa1,2 km/h3,5 km/h315°0,0 mm
07:34-5,7 °C93 %998,0 hPa0,9 km/h2,7 km/h315°0,0 mm
07:29-5,7 °C93 %998,0 hPa1,5 km/h4,7 km/h315°0,0 mm
07:24-5,7 °C93 %998,0 hPa1,3 km/h2,7 km/h315°0,0 mm
07:19-5,7 °C93 %998,0 hPa1,3 km/h5,0 km/h315°0,0 mm
07:14-5,6 °C93 %998,0 hPa1,3 km/h3,2 km/h315°0,0 mm
07:09-5,6 °C93 %998,0 hPa2,1 km/h6,4 km/h332°0,0 mm
07:04-5,6 °C93 %998,0 hPa1,0 km/h6,4 km/h338°0,0 mm
06:59-5,5 °C93 %998,0 hPa1,7 km/h7,4 km/h330°0,0 mm
06:54-5,5 °C93 %998,0 hPa2,5 km/h6,8 km/h315°0,0 mm
06:49-5,4 °C94 %998,0 hPa1,0 km/h4,7 km/h315°0,0 mm
06:44-5,4 °C94 %998,0 hPa0,3 km/h1,8 km/h315°0,0 mm
06:39-5,3 °C94 %998,0 hPa1,1 km/h3,9 km/h315°0,0 mm
06:34-5,3 °C94 %998,0 hPa2,9 km/h7,9 km/h315°0,0 mm
06:29-5,2 °C94 %998,0 hPa0,9 km/h6,1 km/h315°0,0 mm
06:24-5,1 °C94 %998,0 hPa2,9 km/h6,4 km/h315°0,0 mm
06:19-5,1 °C94 %998,0 hPa0,7 km/h3,2 km/h315°0,0 mm
06:14-5,1 °C94 %998,0 hPa0,8 km/h3,2 km/h315°0,0 mm
06:09-5,1 °C94 %998,0 hPa0,1 km/h2,7 km/h315°0,0 mm
06:04-5,1 °C94 %998,0 hPa0,6 km/h3,5 km/h315°0,0 mm
05:59-5,1 °C94 %998,0 hPa0,7 km/h3,2 km/h315°0,0 mm
05:54-5,0 °C94 %998,0 hPa0,4 km/h2,7 km/h315°0,0 mm
05:49-5,0 °C94 %998,0 hPa0,7 km/h2,4 km/h315°0,0 mm
05:44-5,0 °C94 %998,0 hPa0,6 km/h3,5 km/h315°0,0 mm
05:39-4,9 °C94 %998,0 hPa0,8 km/h2,7 km/h315°0,0 mm
05:34-4,9 °C94 %998,0 hPa0,6 km/h2,4 km/h315°0,0 mm
05:29-4,9 °C94 %997,0 hPa0,3 km/h2,4 km/h315°0,0 mm
05:24-4,9 °C94 %997,0 hPa0,6 km/h2,7 km/h315°0,0 mm
05:19-4,8 °C94 %997,0 hPa0,5 km/h2,7 km/h315°0,0 mm
05:14-4,8 °C94 %997,0 hPa0,7 km/h3,2 km/h315°0,0 mm
05:09-4,9 °C94 %997,0 hPa0,6 km/h2,7 km/h315°0,0 mm
05:04-4,9 °C94 %997,0 hPa0,6 km/h2,7 km/h315°0,0 mm
04:59-4,9 °C94 %997,0 hPa1,2 km/h2,7 km/h315°0,0 mm
04:54-4,8 °C94 %997,0 hPa1,3 km/h5,0 km/h315°0,0 mm
04:49-4,7 °C94 %997,0 hPa1,3 km/h3,2 km/h315°0,0 mm
04:44-4,7 °C94 %998,0 hPa1,1 km/h5,3 km/h309°0,0 mm
04:39-4,7 °C94 %998,0 hPa0,1 km/h1,8 km/h292°0,0 mm
04:34-4,7 °C94 %998,0 hPa0,9 km/h3,5 km/h292°0,0 mm
04:29-4,6 °C94 %997,0 hPa1,0 km/h3,2 km/h292°0,0 mm
04:24-4,6 °C94 %997,0 hPa1,0 km/h3,2 km/h292°0,0 mm
04:19-4,6 °C94 %997,0 hPa0,7 km/h2,7 km/h292°0,0 mm
04:14-4,5 °C94 %998,0 hPa0,4 km/h3,5 km/h292°0,0 mm
04:09-4,5 °C94 %998,0 hPa0,5 km/h3,2 km/h304°0,0 mm
04:04-4,5 °C94 %998,0 hPa0,7 km/h5,0 km/h315°0,0 mm
03:59-4,5 °C94 %998,0 hPa1,3 km/h7,9 km/h315°0,0 mm
03:54-4,5 °C94 %998,0 hPa0,5 km/h2,4 km/h298°0,0 mm
03:49-4,5 °C94 %998,0 hPa0,0 km/h0,0 km/h292°0,0 mm
03:44-4,5 °C94 %997,0 hPa0,1 km/h1,8 km/h292°0,0 mm
03:39-4,5 °C94 %997,0 hPa0,8 km/h3,5 km/h292°0,0 mm
03:34-4,5 °C94 %997,0 hPa0,4 km/h2,1 km/h292°0,0 mm
03:29-4,5 °C94 %997,0 hPa0,5 km/h2,1 km/h292°0,0 mm
03:24-4,5 °C94 %997,0 hPa0,6 km/h2,7 km/h292°0,0 mm
03:19-4,5 °C94 %997,0 hPa1,0 km/h3,5 km/h292°0,0 mm
03:14-4,5 °C94 %997,0 hPa0,9 km/h3,9 km/h295°0,0 mm
03:09-4,5 °C94 %997,0 hPa0,7 km/h2,4 km/h315°0,0 mm
03:04-4,5 °C94 %997,0 hPa0,9 km/h3,5 km/h315°0,0 mm
02:59-4,4 °C94 %997,0 hPa0,1 km/h1,8 km/h315°0,0 mm
02:54-4,4 °C94 %997,0 hPa1,4 km/h6,8 km/h295°0,0 mm
02:49-4,4 °C94 %997,0 hPa0,6 km/h5,0 km/h292°0,0 mm
02:44-4,4 °C94 %998,0 hPa0,4 km/h2,1 km/h292°0,0 mm
02:39-4,4 °C94 %998,0 hPa0,9 km/h3,5 km/h299°0,0 mm
02:34-4,4 °C94 %998,0 hPa0,2 km/h2,1 km/h315°0,0 mm
02:29-4,4 °C94 %997,0 hPa0,3 km/h2,1 km/h315°0,0 mm
02:24-4,3 °C94 %997,0 hPa0,4 km/h2,4 km/h292°0,0 mm
02:19-4,3 °C94 %997,0 hPa0,6 km/h3,2 km/h292°0,0 mm
02:09-4,3 °C94 %997,0 hPa0,5 km/h2,7 km/h292°0,0 mm
02:04-4,3 °C94 %997,0 hPa0,7 km/h3,5 km/h299°0,0 mm
01:59-4,3 °C94 %998,0 hPa0,5 km/h2,7 km/h304°0,0 mm
01:54-4,3 °C94 %998,0 hPa1,4 km/h7,4 km/h315°0,0 mm
01:49-4,3 °C94 %998,0 hPa1,1 km/h7,1 km/h304°0,0 mm
01:44-4,3 °C94 %997,0 hPa0,7 km/h3,5 km/h292°0,0 mm
01:39-4,2 °C94 %997,0 hPa1,6 km/h5,0 km/h292°0,0 mm
01:34-4,2 °C94 %997,0 hPa1,5 km/h6,4 km/h299°0,0 mm
01:29-4,1 °C94 %997,0 hPa1,7 km/h5,6 km/h303°0,0 mm
01:24-4,0 °C94 %997,0 hPa0,4 km/h2,4 km/h315°0,0 mm
01:19-4,0 °C94 %997,0 hPa0,6 km/h5,3 km/h292°0,0 mm
01:14-4,0 °C94 %997,0 hPa0,2 km/h1,8 km/h292°0,0 mm
01:09-4,0 °C94 %997,0 hPa0,0 km/h0,0 km/h292°0,0 mm
01:04-4,0 °C94 %997,0 hPa0,0 km/h0,0 km/h292°0,0 mm
00:59-4,0 °C94 %997,0 hPa0,0 km/h0,0 km/h292°0,0 mm
00:54-4,0 °C94 %997,0 hPa0,2 km/h2,1 km/h292°0,0 mm
00:49-4,0 °C94 %997,0 hPa0,6 km/h3,2 km/h292°0,0 mm
00:44-3,9 °C94 %997,0 hPa0,5 km/h3,2 km/h292°0,0 mm
00:39-3,9 °C94 %997,0 hPa0,4 km/h2,7 km/h292°0,0 mm
00:34-3,9 °C94 %997,0 hPa0,3 km/h2,4 km/h292°0,0 mm
00:29-3,9 °C94 %998,0 hPa0,1 km/h1,8 km/h292°0,0 mm
00:24-3,9 °C94 %998,0 hPa0,5 km/h2,7 km/h292°0,0 mm
00:19-3,8 °C93 %998,0 hPa0,9 km/h5,3 km/h294°0,0 mm
00:14-3,8 °C94 %998,0 hPa0,4 km/h2,4 km/h315°0,0 mm
00:09-3,8 °C94 %998,0 hPa0,5 km/h3,5 km/h292°0,0 mm
00:04-3,8 °C94 %998,0 hPa0,4 km/h3,2 km/h315°0,0 mm